createdAt,value
2023-02-13T00:00:35.846Z,69.87
2023-02-13T00:03:03.722Z,70.07
2023-02-13T00:05:30.780Z,72.47
2023-02-13T00:07:57.789Z,72.73
2023-02-13T00:10:28.435Z,70.60
2023-02-13T00:12:56.480Z,65.90
2023-02-13T00:15:23.453Z,67.27
2023-02-13T00:17:50.553Z,67.70
2023-02-13T00:20:17.705Z,57.50
2023-02-13T00:22:44.636Z,64.30
2023-02-13T00:25:11.808Z,66.03
2023-02-13T00:27:38.808Z,65.77
2023-02-13T00:30:06.550Z,70.27
2023-02-13T00:32:33.742Z,68.63
2023-02-13T00:35:01.002Z,67.30
2023-02-13T00:37:28.184Z,67.20
2023-02-13T00:39:56.404Z,54.77
2023-02-13T00:42:26.688Z,60.83
2023-02-13T00:44:54.806Z,64.83
2023-02-13T00:47:23.401Z,70.37
2023-02-13T00:49:50.525Z,67.63
2023-02-13T00:52:17.566Z,71.40
2023-02-13T00:54:44.687Z,69.93
2023-02-13T00:57:13.057Z,65.27
2023-02-13T00:59:42.272Z,62.87
2023-02-13T01:02:09.315Z,67.80
2023-02-13T01:04:36.308Z,70.57
2023-02-13T01:07:03.383Z,67.67
2023-02-13T01:09:30.401Z,70.40
2023-02-13T01:11:57.366Z,69.33
2023-02-13T01:14:24.371Z,69.40
2023-02-13T01:16:51.431Z,67.87
2023-02-13T01:19:18.902Z,67.23
2023-02-13T01:21:45.938Z,63.47
2023-02-13T01:24:12.963Z,67.20
2023-02-13T01:26:45.785Z,65.73
2023-02-13T01:29:14.178Z,63.93
2023-02-13T01:31:41.687Z,62.63
2023-02-13T01:34:09.035Z,60.10
2023-02-13T01:36:35.962Z,62.47
2023-02-13T01:39:03.450Z,60.93
2023-02-13T01:41:32.123Z,59.33
2023-02-13T01:44:01.348Z,57.83
2023-02-13T01:46:48.709Z,56.77
2023-02-13T01:49:20.220Z,56.13
2023-02-13T01:51:51.363Z,59.17
2023-02-13T01:54:24.088Z,55.17
2023-02-13T01:56:58.185Z,53.97
2023-02-13T01:59:31.344Z,56.50
2023-02-13T02:02:00.949Z,55.00
2023-02-13T02:04:41.014Z,57.83
2023-02-13T02:07:23.815Z,57.50
2023-02-13T02:09:53.993Z,54.90
2023-02-13T02:12:27.658Z,53.27
2023-02-13T02:14:58.176Z,53.47
2023-02-13T02:17:27.192Z,52.13
2023-02-13T02:20:00.050Z,47.47
2023-02-13T02:22:43.437Z,51.67
2023-02-13T02:25:18.682Z,53.47
2023-02-13T02:28:00.904Z,54.90
2023-02-13T02:31:05.124Z,54.23
2023-02-13T02:33:57.367Z,53.17
2023-02-13T02:36:58.106Z,54.07
2023-02-13T02:39:40.825Z,55.93
2023-02-13T02:42:25.376Z,54.50
2023-02-13T02:44:57.889Z,60.47
2023-02-13T02:47:48.598Z,54.57
2023-02-13T02:50:33.368Z,53.37
2023-02-13T02:53:09.389Z,53.30
2023-02-13T02:55:45.074Z,49.33
2023-02-13T02:58:39.550Z,50.87
2023-02-13T03:01:30.726Z,49.03
2023-02-13T03:04:18.810Z,48.67
2023-02-13T03:07:00.187Z,48.40
2023-02-13T03:09:51.233Z,53.47
2023-02-13T03:12:41.866Z,54.23
2023-02-13T03:15:09.927Z,51.57
2023-02-13T03:17:56.688Z,53.83
2023-02-13T03:20:58.081Z,54.10
2023-02-13T03:24:12.597Z,50.90
2023-02-13T03:26:50.804Z,51.20
2023-02-13T03:29:43.111Z,51.77
2023-02-13T03:32:36.363Z,51.23
2023-02-13T03:35:40.347Z,51.17
2023-02-13T03:38:20.830Z,53.07
2023-02-13T03:41:18.597Z,50.90
2023-02-13T03:44:11.757Z,52.97
2023-02-13T03:46:57.760Z,51.97
2023-02-13T03:49:55.699Z,52.37
2023-02-13T03:52:36.182Z,51.85
2023-02-13T03:55:28.115Z,51.50
2023-02-13T03:58:17.489Z,52.23
2023-02-13T04:00:51.536Z,51.00
2023-02-13T04:03:51.175Z,51.93
2023-02-13T04:06:58.573Z,53.83
2023-02-13T04:09:28.171Z,54.67
2023-02-13T04:12:13.269Z,53.87
2023-02-13T04:14:46.176Z,57.90
2023-02-13T04:17:20.339Z,56.23
2023-02-13T04:19:47.866Z,56.43
2023-02-13T04:22:15.393Z,58.07
2023-02-13T04:24:42.383Z,55.93
2023-02-13T04:27:13.944Z,56.47
2023-02-13T04:29:41.517Z,58.70
2023-02-13T04:32:10.812Z,57.10
2023-02-13T04:34:38.555Z,55.53
2023-02-13T04:37:05.770Z,58.33
2023-02-13T04:39:32.826Z,55.60
2023-02-13T04:41:59.798Z,58.70
2023-02-13T04:44:26.848Z,59.77
2023-02-13T04:46:53.794Z,60.57
2023-02-13T04:49:20.817Z,59.77
2023-02-13T04:51:47.793Z,57.57
2023-02-13T04:54:14.829Z,55.83
2023-02-13T04:56:41.803Z,55.80
2023-02-13T04:59:08.831Z,56.40
2023-02-13T05:01:35.889Z,58.20
2023-02-13T05:04:03.201Z,59.10
2023-02-13T05:06:30.215Z,55.60
2023-02-13T05:08:57.234Z,55.70
2023-02-13T05:11:24.306Z,56.07
2023-02-13T05:13:51.303Z,54.47
2023-02-13T05:16:18.543Z,55.33
2023-02-13T05:18:45.892Z,51.87
2023-02-13T05:21:32.720Z,54.33
2023-02-13T05:23:59.999Z,54.13
2023-02-13T05:26:26.948Z,53.60
2023-02-13T05:29:13.528Z,52.37
2023-02-13T05:31:40.828Z,54.37
2023-02-13T05:34:07.896Z,50.80
2023-02-13T05:36:36.421Z,54.57
2023-02-13T05:39:04.171Z,52.53
2023-02-13T05:41:31.510Z,53.67
2023-02-13T05:43:58.685Z,57.37
2023-02-13T05:46:26.197Z,56.00
2023-02-13T05:48:53.254Z,51.03
2023-02-13T05:51:21.496Z,50.03
2023-02-13T05:53:48.466Z,49.37
2023-02-13T05:56:15.917Z,51.63
2023-02-13T05:58:43.056Z,50.90
2023-02-13T06:01:10.936Z,51.53
2023-02-13T06:03:37.910Z,47.50
2023-02-13T06:06:05.672Z,47.93
2023-02-13T06:08:33.274Z,46.70
2023-02-13T06:11:01.260Z,46.37
2023-02-13T06:13:29.018Z,44.50
2023-02-13T06:15:56.319Z,48.07
2023-02-13T06:18:23.794Z,51.63
2023-02-13T06:20:51.683Z,56.10
2023-02-13T06:23:18.755Z,69.60
2023-02-13T06:25:46.018Z,74.93
2023-02-13T06:28:13.670Z,65.53
2023-02-13T06:30:41.147Z,65.57
2023-02-13T06:33:08.182Z,72.93
2023-02-13T06:35:35.794Z,63.57
2023-02-13T06:38:03.018Z,67.57
2023-02-13T06:40:30.416Z,73.83
2023-02-13T06:42:57.657Z,71.63
2023-02-13T06:45:30.703Z,50.67
2023-02-13T06:48:00.127Z,55.63
2023-02-13T06:50:27.176Z,60.50
2023-02-13T06:52:54.201Z,61.33
2023-02-13T06:55:21.456Z,59.20
2023-02-13T06:57:48.897Z,63.07
2023-02-13T07:00:18.428Z,57.10
2023-02-13T07:02:47.183Z,52.93
2023-02-13T07:05:15.043Z,51.33
2023-02-13T07:07:43.656Z,54.20
2023-02-13T07:10:13.565Z,51.83
2023-02-13T07:12:41.700Z,51.33
2023-02-13T07:15:09.426Z,50.17
2023-02-13T07:17:36.479Z,51.70
2023-02-13T07:20:06.897Z,51.10
2023-02-13T07:22:33.889Z,51.77
2023-02-13T07:25:02.514Z,56.73
2023-02-13T07:27:29.703Z,56.77
2023-02-13T07:29:57.841Z,57.73
2023-02-13T07:32:25.832Z,62.03
2023-02-13T07:35:01.559Z,60.80
2023-02-13T07:37:31.344Z,63.43
2023-02-13T07:39:58.706Z,58.37
2023-02-13T07:42:26.339Z,67.27
2023-02-13T07:44:53.407Z,63.27
2023-02-13T07:47:20.782Z,65.47
2023-02-13T07:49:47.943Z,63.50
2023-02-13T07:52:15.244Z,64.63
2023-02-13T07:54:47.952Z,64.10
2023-02-13T07:57:16.792Z,63.90
2023-02-13T07:59:44.397Z,63.90
2023-02-13T08:02:14.573Z,63.60
2023-02-13T08:04:46.924Z,50.73
2023-02-13T08:07:16.271Z,61.97
2023-02-13T08:10:04.687Z,62.50
2023-02-13T08:12:35.237Z,58.73
2023-02-13T08:15:02.586Z,57.87
2023-02-13T08:17:29.906Z,59.23
2023-02-13T08:19:57.498Z,57.90
2023-02-13T08:22:24.484Z,59.20
2023-02-13T08:24:52.467Z,58.27
2023-02-13T08:27:19.522Z,57.83
2023-02-13T08:29:46.543Z,59.03
2023-02-13T08:32:13.644Z,51.97
2023-02-13T08:34:40.719Z,52.13
2023-02-13T08:37:07.749Z,50.40
2023-02-13T08:39:34.800Z,49.83
2023-02-13T08:42:01.923Z,49.13
2023-02-13T08:44:29.121Z,50.03
2023-02-13T08:46:56.417Z,53.50
2023-02-13T08:49:23.830Z,53.03
2023-02-13T08:51:51.558Z,51.63
2023-02-13T08:54:18.906Z,54.00
2023-02-13T08:56:45.995Z,53.77
2023-02-13T08:59:13.767Z,52.57
2023-02-13T09:01:41.087Z,51.83
2023-02-13T09:04:08.260Z,54.27
2023-02-13T09:06:35.286Z,53.37
2023-02-13T09:09:02.347Z,55.27
2023-02-13T09:11:29.278Z,51.67
2023-02-13T09:13:56.336Z,53.00
2023-02-13T09:16:23.414Z,44.30
2023-02-13T09:18:51.672Z,46.97
2023-02-13T09:21:21.136Z,47.23
2023-02-13T09:23:48.176Z,41.67
2023-02-13T09:26:16.568Z,42.88
2023-02-13T09:28:44.200Z,47.88
2023-02-13T09:31:12.885Z,37.40
2023-02-13T09:33:39.982Z,35.83
2023-02-13T09:36:13.656Z,32.00
2023-02-13T09:38:45.048Z,37.08
2023-02-13T09:41:34.799Z,36.50
2023-02-13T09:44:34.697Z,33.50
2023-02-13T09:47:11.038Z,36.83
2023-02-13T09:49:44.392Z,35.05
2023-02-13T09:52:11.546Z,36.63
2023-02-13T09:54:38.962Z,30.70
2023-02-13T09:57:36.761Z,30.42
2023-02-13T10:00:27.006Z,26.27
2023-02-13T10:03:07.667Z,27.67
2023-02-13T10:05:58.133Z,29.55
2023-02-13T10:08:43.737Z,21.67
2023-02-13T10:11:36.826Z,25.77
2023-02-13T10:14:28.541Z,25.38
2023-02-13T10:17:14.701Z,23.80
2023-02-13T10:19:49.204Z,24.77
2023-02-13T10:22:47.328Z,27.05
2023-02-13T10:25:28.607Z,24.60
2023-02-13T10:27:58.138Z,24.75
2023-02-13T10:30:32.553Z,26.83
2023-02-13T10:33:31.942Z,26.08
2023-02-13T10:36:26.144Z,30.33
2023-02-13T10:39:05.606Z,30.48
2023-02-13T10:41:43.604Z,27.83
2023-02-13T10:44:13.527Z,31.17
2023-02-13T10:46:40.503Z,28.10
2023-02-13T10:49:29.167Z,26.63
2023-02-13T10:52:05.677Z,28.80
2023-02-13T10:54:48.240Z,27.75
2023-02-13T10:57:30.647Z,27.52
2023-02-13T11:00:13.263Z,25.95
2023-02-13T11:02:41.568Z,24.67
2023-02-13T11:05:24.128Z,24.45
2023-02-13T11:07:51.671Z,23.48
2023-02-13T11:10:23.313Z,24.00
2023-02-13T11:12:52.162Z,27.67
2023-02-13T11:15:22.345Z,28.38
2023-02-13T11:18:03.539Z,27.75
2023-02-13T11:20:44.792Z,28.25
2023-02-13T11:23:21.426Z,26.60
2023-02-13T11:25:58.377Z,23.90
2023-02-13T11:31:10.906Z,24.38
2023-02-13T11:33:38.768Z,24.45
2023-02-13T11:36:24.784Z,25.33
2023-02-13T11:39:19.391Z,24.65
2023-02-13T11:41:50.980Z,22.92
2023-02-13T11:44:29.519Z,21.75
2023-02-13T11:46:59.361Z,21.92
2023-02-13T11:49:29.555Z,24.13
2023-02-13T11:51:58.938Z,21.85
2023-02-13T11:54:39.131Z,23.40
2023-02-13T11:57:25.871Z,23.00
2023-02-13T11:59:54.286Z,21.75
2023-02-13T12:02:24.073Z,23.35
2023-02-13T12:04:53.776Z,24.48
2023-02-13T12:07:20.760Z,25.08
2023-02-13T12:10:13.030Z,24.67
2023-02-13T12:13:03.634Z,25.83
2023-02-13T12:15:34.937Z,26.55
2023-02-13T12:18:05.207Z,25.80
2023-02-13T12:21:04.395Z,26.83
2023-02-13T12:23:52.930Z,28.73
2023-02-13T12:26:36.520Z,27.63
2023-02-13T12:29:23.261Z,26.45
2023-02-13T12:32:11.003Z,26.15
2023-02-13T12:35:11.627Z,23.27
2023-02-13T12:37:56.680Z,20.98
2023-02-13T12:40:37.014Z,24.75
2023-02-13T12:43:46.355Z,24.13
2023-02-13T12:46:37.055Z,23.90
2023-02-13T12:49:26.557Z,23.10
2023-02-13T12:52:06.813Z,21.95
2023-02-13T12:54:37.597Z,22.08
2023-02-13T12:57:38.978Z,21.42
2023-02-13T13:00:21.207Z,20.05
2023-02-13T13:03:15.625Z,20.27
2023-02-13T13:06:16.273Z,19.90
2023-02-13T13:09:20.862Z,20.55
2023-02-13T13:12:13.648Z,22.73
2023-02-13T13:15:06.043Z,23.15
2023-02-13T13:17:42.485Z,23.20
2023-02-13T13:20:18.103Z,21.98
2023-02-13T13:22:53.844Z,23.25
2023-02-13T13:25:31.991Z,20.00
2023-02-13T13:28:08.708Z,17.08
2023-02-13T13:30:38.143Z,18.25
2023-02-13T13:33:10.253Z,18.02
2023-02-13T13:35:43.197Z,15.82
2023-02-13T13:38:30.589Z,15.32
2023-02-13T13:41:09.488Z,18.25
2023-02-13T13:43:57.738Z,17.63
2023-02-13T13:46:29.355Z,17.42
2023-02-13T13:49:22.372Z,15.82
2023-02-13T13:51:49.393Z,16.00
2023-02-13T13:54:16.313Z,15.02
2023-02-13T13:57:02.248Z,16.77
2023-02-13T13:59:37.892Z,15.68
2023-02-13T14:02:20.404Z,15.82
2023-02-13T14:05:24.564Z,17.50
2023-02-13T14:07:55.359Z,15.70
2023-02-13T14:10:22.367Z,15.40
2023-02-13T14:13:00.994Z,16.15
2023-02-13T14:15:42.580Z,15.27
2023-02-13T14:18:12.629Z,14.07
2023-02-13T14:20:44.477Z,13.40
2023-02-13T14:23:35.851Z,13.35
2023-02-13T14:26:18.450Z,13.85
2023-02-13T14:28:51.555Z,14.52
2023-02-13T14:31:36.201Z,13.70
2023-02-13T14:34:12.580Z,12.85
2023-02-13T14:36:49.488Z,11.70
2023-02-13T14:39:20.722Z,12.07
2023-02-13T14:41:58.929Z,15.70
2023-02-13T14:44:56.632Z,12.15
2023-02-13T14:47:44.140Z,11.75
2023-02-13T14:50:26.881Z,12.40
2023-02-13T14:52:55.849Z,10.77
2023-02-13T14:55:36.416Z,11.00
2023-02-13T14:58:22.997Z,12.15
2023-02-13T15:00:56.493Z,10.95
2023-02-13T15:03:47.305Z,11.98
2023-02-13T15:06:20.309Z,10.45
2023-02-13T15:08:51.796Z,11.10
2023-02-13T15:11:43.379Z,11.15
2023-02-13T15:14:19.416Z,10.40
2023-02-13T15:16:55.118Z,10.73
2023-02-13T15:19:24.634Z,11.82
2023-02-13T15:22:02.874Z,12.25
2023-02-13T15:24:37.021Z,12.70
2023-02-13T15:27:07.227Z,13.95
2023-02-13T15:29:48.894Z,15.88
2023-02-13T15:32:21.376Z,14.60
2023-02-13T15:34:49.210Z,13.57
2023-02-13T15:37:24.756Z,15.05
2023-02-13T15:39:51.967Z,15.10
2023-02-13T15:42:19.260Z,13.88
2023-02-13T15:44:50.529Z,14.90
2023-02-13T15:47:30.730Z,13.27
2023-02-13T15:49:59.198Z,14.85
2023-02-13T15:52:36.862Z,15.63
2023-02-13T15:55:04.804Z,14.07
2023-02-13T15:57:32.345Z,16.70
2023-02-13T16:00:01.421Z,18.05
2023-02-13T16:02:48.305Z,14.80
2023-02-13T16:05:20.041Z,11.98
2023-02-13T16:07:57.813Z,14.93
2023-02-13T16:10:32.736Z,16.95
2023-02-13T16:13:04.127Z,17.15
2023-02-13T16:15:34.449Z,17.60
2023-02-13T16:18:04.458Z,17.23
2023-02-13T16:20:33.602Z,16.63
2023-02-13T16:23:14.419Z,14.63
2023-02-13T16:25:42.132Z,13.68
2023-02-13T16:28:21.558Z,18.65
2023-02-13T16:31:07.499Z,18.42
2023-02-13T16:33:38.363Z,25.30
2023-02-13T16:36:11.457Z,31.70
2023-02-13T16:38:49.893Z,22.52
2023-02-13T16:41:19.998Z,20.48
2023-02-13T16:44:22.146Z,40.83
2023-02-13T16:46:58.054Z,30.08
2023-02-13T16:49:28.911Z,24.15
2023-02-13T16:52:07.513Z,21.33
2023-02-13T16:54:57.416Z,21.42
2023-02-13T16:57:30.297Z,21.75
2023-02-13T17:00:19.292Z,23.92
2023-02-13T17:02:47.638Z,23.40
2023-02-13T17:05:22.377Z,22.15
2023-02-13T17:07:57.931Z,22.70
2023-02-13T17:10:31.405Z,22.73
2023-02-13T17:13:02.579Z,23.60
2023-02-13T17:15:32.518Z,20.90
2023-02-13T17:18:00.166Z,23.52
2023-02-13T17:20:30.228Z,22.52
2023-02-13T17:23:03.369Z,24.67
2023-02-13T17:25:36.307Z,25.13
2023-02-13T17:28:14.741Z,23.35
2023-02-13T17:30:42.969Z,24.60
2023-02-13T17:33:28.487Z,45.03
2023-02-13T17:35:56.015Z,49.80
2023-02-13T17:38:23.521Z,57.92
2023-02-13T17:40:51.094Z,53.08
2023-02-13T17:43:19.533Z,48.63
2023-02-13T17:45:48.123Z,44.10
2023-02-13T17:48:16.004Z,46.80
2023-02-13T17:50:43.473Z,39.73
2023-02-13T17:53:30.481Z,35.27
2023-02-13T17:55:58.373Z,42.60
2023-02-13T17:58:25.383Z,42.50
2023-02-13T18:00:53.559Z,43.47
2023-02-13T18:03:21.124Z,44.63
2023-02-13T18:05:49.801Z,45.40
2023-02-13T18:08:16.966Z,43.97
2023-02-13T18:10:44.904Z,43.97
2023-02-13T18:13:12.034Z,43.47
2023-02-13T18:15:44.421Z,43.20
2023-02-13T18:18:13.622Z,42.93
2023-02-13T18:20:40.678Z,43.77
2023-02-13T18:23:08.258Z,43.37
2023-02-13T18:25:35.682Z,45.13
2023-02-13T18:28:03.071Z,45.97
2023-02-13T18:30:30.272Z,44.07
2023-02-13T18:32:59.448Z,44.30
2023-02-13T18:35:27.071Z,44.10
2023-02-13T18:37:54.358Z,45.27
2023-02-13T18:40:21.933Z,46.20
2023-02-13T18:42:52.635Z,47.37
2023-02-13T18:45:19.788Z,62.63
2023-02-13T18:47:46.814Z,55.13
2023-02-13T18:50:14.249Z,50.50
2023-02-13T18:52:41.224Z,45.97
2023-02-13T18:55:08.593Z,48.97
2023-02-13T18:57:35.806Z,47.80
2023-02-13T19:00:04.909Z,43.93
2023-02-13T19:02:33.590Z,47.47
2023-02-13T19:05:01.534Z,45.33
2023-02-13T19:07:28.558Z,53.70
2023-02-13T19:09:56.061Z,50.77
2023-02-13T19:12:23.134Z,51.53
2023-02-13T19:14:50.268Z,41.53
2023-02-13T19:17:17.244Z,45.67
2023-02-13T19:19:48.990Z,50.30
2023-02-13T19:22:16.104Z,50.17
2023-02-13T19:24:43.942Z,48.87
2023-02-13T19:27:11.602Z,43.47
2023-02-13T19:29:39.350Z,42.87
2023-02-13T19:32:06.600Z,39.87
2023-02-13T19:34:34.031Z,43.87
2023-02-13T19:37:01.365Z,43.30
2023-02-13T19:39:28.607Z,45.47
2023-02-13T19:41:55.619Z,45.60
2023-02-13T19:44:23.292Z,46.93
2023-02-13T19:46:50.399Z,46.13
2023-02-13T19:49:19.196Z,91.93
2023-02-13T19:51:47.354Z,115.53
2023-02-13T19:54:14.857Z,84.13
2023-02-13T19:56:41.891Z,102.47
2023-02-13T19:59:13.781Z,52.43
2023-02-13T20:01:43.071Z,46.73
2023-02-13T20:04:15.543Z,91.90
2023-02-13T20:06:45.399Z,141.67
2023-02-13T20:09:14.266Z,72.77
2023-02-13T20:11:43.607Z,110.20
2023-02-13T20:14:15.281Z,57.27
2023-02-13T20:16:45.891Z,104.10
2023-02-13T20:19:14.608Z,108.43
2023-02-13T20:21:42.779Z,106.23
2023-02-13T20:24:10.918Z,96.33
2023-02-13T20:26:38.452Z,89.40
2023-02-13T20:29:06.124Z,70.97
2023-02-13T20:31:34.663Z,61.80
2023-02-13T20:34:05.741Z,53.53
2023-02-13T20:36:33.566Z,48.83
2023-02-13T20:39:03.992Z,82.10
2023-02-13T20:41:33.673Z,78.60
2023-02-13T20:44:04.173Z,69.57
2023-02-13T20:46:33.249Z,78.10
2023-02-13T20:49:00.299Z,86.53
2023-02-13T20:51:28.072Z,101.43
2023-02-13T20:53:55.515Z,78.60
2023-02-13T20:56:25.343Z,59.00
2023-02-13T20:58:53.593Z,56.30
2023-02-13T21:01:26.896Z,68.03
2023-02-13T21:03:55.454Z,49.90
2023-02-13T21:06:24.330Z,56.27
2023-02-13T21:08:52.348Z,55.67
2023-02-13T21:11:19.789Z,41.53
2023-02-13T21:13:47.960Z,32.70
2023-02-13T21:16:20.387Z,32.70
2023-02-13T21:18:50.556Z,36.33
2023-02-13T21:21:18.527Z,37.63
2023-02-13T21:23:46.204Z,45.93
2023-02-13T21:26:15.768Z,39.27
2023-02-13T21:28:46.569Z,57.33
2023-02-13T21:31:27.939Z,66.70
2023-02-13T21:34:21.380Z,64.90
2023-02-13T21:36:49.193Z,51.47
2023-02-13T21:39:16.817Z,65.87
2023-02-13T21:41:46.336Z,53.83
2023-02-13T21:44:17.102Z,35.43
2023-02-13T21:46:45.439Z,33.67
2023-02-13T21:49:15.314Z,31.50
2023-02-13T21:51:43.749Z,55.70
2023-02-13T21:54:11.706Z,56.00
2023-02-13T21:56:40.749Z,56.80
2023-02-13T21:59:08.310Z,58.57
2023-02-13T22:01:46.268Z,59.88
2023-02-13T22:04:13.652Z,56.93
2023-02-13T22:06:41.198Z,48.13
2023-02-13T22:09:14.517Z,44.17
2023-02-13T22:11:42.635Z,48.17
2023-02-13T22:14:13.478Z,48.23
2023-02-13T22:16:40.653Z,43.73
2023-02-13T22:19:16.072Z,39.87
2023-02-13T22:21:43.639Z,33.43
2023-02-13T22:24:13.901Z,29.07
2023-02-13T22:26:45.401Z,32.87
2023-02-13T22:29:15.417Z,36.73
2023-02-13T22:31:42.772Z,70.47
2023-02-13T22:34:13.582Z,48.00
2023-02-13T22:36:42.057Z,51.67
2023-02-13T22:39:11.615Z,54.90
2023-02-13T22:41:38.975Z,42.53
2023-02-13T22:44:06.185Z,38.63
2023-02-13T22:46:34.433Z,51.10
2023-02-13T22:49:01.567Z,55.13
2023-02-13T22:51:34.043Z,49.93
2023-02-13T22:54:01.848Z,55.77
2023-02-13T22:56:30.252Z,49.20
2023-02-13T22:58:57.891Z,59.10
2023-02-13T23:01:26.622Z,47.50
2023-02-13T23:03:54.318Z,51.57
2023-02-13T23:06:22.121Z,51.13
2023-02-13T23:08:52.786Z,59.90
2023-02-13T23:11:41.884Z,57.13
2023-02-13T23:14:10.512Z,53.60
2023-02-13T23:16:57.200Z,62.53
2023-02-13T23:19:25.678Z,61.90
2023-02-13T23:21:52.679Z,58.07
2023-02-13T23:24:19.628Z,55.87
2023-02-13T23:26:46.768Z,59.67
2023-02-13T23:29:14.020Z,52.17
2023-02-13T23:31:41.380Z,47.93
2023-02-13T23:34:08.781Z,45.77
2023-02-13T23:36:35.813Z,44.90
2023-02-13T23:39:02.818Z,49.63
2023-02-13T23:41:29.878Z,53.93
2023-02-13T23:43:57.049Z,43.97
2023-02-13T23:46:24.157Z,43.17
2023-02-13T23:48:51.184Z,43.70
2023-02-13T23:51:18.683Z,43.50
2023-02-13T23:53:45.771Z,52.60
2023-02-13T23:56:12.834Z,40.03
2023-02-13T23:58:39.895Z,40.30
